createdAt,value
2019-03-09T00:00:48.715Z,7.72
2019-03-09T00:03:16.946Z,7.75
2019-03-09T00:05:45.173Z,7.77
2019-03-09T00:08:13.625Z,7.77
2019-03-09T00:10:41.854Z,7.84
2019-03-09T00:13:10.086Z,7.87
2019-03-09T00:15:38.307Z,7.90
2019-03-09T00:18:06.766Z,7.92
2019-03-09T00:20:35.215Z,7.96
2019-03-09T00:23:05.308Z,8.01
2019-03-09T00:25:37.813Z,8.05
2019-03-09T00:28:07.915Z,8.08
2019-03-09T00:30:40.772Z,8.10
2019-03-09T00:33:09.007Z,8.12
2019-03-09T00:35:37.230Z,8.17
2019-03-09T00:38:05.637Z,8.17
2019-03-09T00:40:34.095Z,8.19
2019-03-09T00:43:02.563Z,8.19
2019-03-09T00:45:30.785Z,8.18
2019-03-09T00:47:59.019Z,8.16
2019-03-09T00:50:27.248Z,8.11
2019-03-09T00:52:55.481Z,8.16
2019-03-09T00:55:23.971Z,8.19
2019-03-09T00:57:52.427Z,8.19
2019-03-09T01:00:20.663Z,8.20
2019-03-09T01:02:50.958Z,8.22
2019-03-09T01:05:18.842Z,8.23
2019-03-09T01:07:47.066Z,8.20
2019-03-09T01:10:16.564Z,8.19
2019-03-09T01:12:45.020Z,8.21
2019-03-09T01:15:13.324Z,8.23
2019-03-09T01:17:41.788Z,8.24
2019-03-09T01:20:12.358Z,8.26
2019-03-09T01:22:40.586Z,8.24
2019-03-09T01:25:09.966Z,8.21
2019-03-09T01:27:38.194Z,8.22
2019-03-09T01:30:09.839Z,8.19
2019-03-09T01:32:38.065Z,8.17
2019-03-09T01:35:06.628Z,8.16
2019-03-09T01:37:34.856Z,8.18
2019-03-09T01:40:04.160Z,8.19
2019-03-09T01:42:32.384Z,8.23
2019-03-09T01:45:00.619Z,8.23
2019-03-09T01:47:28.844Z,8.20
2019-03-09T01:49:57.296Z,8.21
2019-03-09T01:52:25.523Z,8.20
2019-03-09T01:54:53.754Z,8.20
2019-03-09T01:57:21.975Z,8.21
2019-03-09T01:59:50.211Z,8.19
2019-03-09T02:02:18.438Z,8.16
2019-03-09T02:04:46.679Z,8.21
2019-03-09T02:07:14.895Z,8.16
2019-03-09T02:09:43.126Z,8.23
2019-03-09T02:12:11.351Z,8.24
2019-03-09T02:14:39.580Z,8.29
2019-03-09T02:17:07.814Z,8.26
2019-03-09T02:19:36.057Z,8.29
2019-03-09T02:22:04.613Z,8.33
2019-03-09T02:24:33.679Z,8.38
2019-03-09T02:27:02.134Z,8.36
2019-03-09T02:29:30.363Z,8.40
2019-03-09T02:31:58.659Z,8.45
2019-03-09T02:34:26.939Z,8.44
2019-03-09T02:36:55.179Z,8.44
2019-03-09T02:39:33.496Z,8.42
2019-03-09T02:42:01.735Z,8.40
2019-03-09T02:44:29.961Z,8.37
2019-03-09T02:46:58.440Z,8.41
2019-03-09T02:49:26.671Z,8.41
2019-03-09T02:51:54.897Z,8.44
2019-03-09T02:54:23.352Z,8.44
2019-03-09T02:56:51.583Z,8.48
2019-03-09T02:59:19.808Z,8.51
2019-03-09T03:01:49.675Z,8.49
2019-03-09T03:04:18.125Z,8.52
2019-03-09T03:06:46.584Z,8.50
2019-03-09T03:09:14.803Z,8.50
2019-03-09T03:11:43.041Z,8.53
2019-03-09T03:14:11.483Z,8.53
2019-03-09T03:16:39.747Z,8.53
2019-03-09T03:19:08.001Z,8.52
2019-03-09T03:21:36.207Z,8.52
2019-03-09T03:24:04.427Z,8.40
2019-03-09T03:26:32.662Z,8.34
2019-03-09T03:29:00.885Z,8.30
2019-03-09T03:31:29.176Z,8.24
2019-03-09T03:33:57.413Z,8.17
2019-03-09T03:36:25.629Z,8.07
2019-03-09T03:38:53.873Z,8.05
2019-03-09T03:41:22.093Z,8.04
2019-03-09T03:43:50.397Z,7.97
2019-03-09T03:46:18.844Z,7.99
2019-03-09T03:48:47.302Z,7.98
2019-03-09T03:51:15.753Z,7.97
2019-03-09T03:53:43.988Z,7.91
2019-03-09T03:56:12.455Z,7.92
2019-03-09T03:58:40.871Z,7.86
2019-03-09T04:01:09.080Z,7.85
2019-03-09T04:03:37.546Z,7.81
2019-03-09T04:06:05.777Z,7.76
2019-03-09T04:08:34.025Z,7.71
2019-03-09T04:11:02.403Z,7.70
2019-03-09T04:13:30.866Z,7.68
2019-03-09T04:15:59.100Z,7.63
2019-03-09T04:18:27.559Z,7.65
2019-03-09T04:20:55.785Z,7.64
2019-03-09T04:23:24.034Z,7.64
2019-03-09T04:25:52.486Z,7.67
2019-03-09T04:28:20.940Z,7.66
2019-03-09T04:30:49.171Z,7.71
2019-03-09T04:33:17.409Z,7.72
2019-03-09T04:35:45.634Z,7.76
2019-03-09T04:38:14.193Z,7.78
2019-03-09T04:40:42.428Z,7.74
2019-03-09T04:43:10.638Z,7.73
2019-03-09T04:45:38.872Z,7.71
2019-03-09T04:48:07.099Z,7.64
2019-03-09T04:50:35.564Z,7.60
2019-03-09T04:53:04.014Z,7.56
2019-03-09T04:55:32.251Z,7.52
2019-03-09T04:58:00.476Z,7.47
2019-03-09T05:00:28.990Z,7.44
2019-03-09T05:02:57.470Z,7.43
2019-03-09T05:05:25.951Z,7.40
2019-03-09T05:07:59.983Z,7.40
2019-03-09T05:10:31.394Z,7.37
2019-03-09T05:13:08.666Z,7.35
2019-03-09T05:15:36.903Z,7.35
2019-03-09T05:18:05.130Z,7.36
2019-03-09T05:20:33.370Z,7.38
2019-03-09T05:23:01.602Z,7.39
2019-03-09T05:25:30.063Z,7.37
2019-03-09T05:27:58.391Z,7.37
2019-03-09T05:30:43.994Z,7.39
2019-03-09T05:33:12.219Z,7.37
2019-03-09T05:35:40.680Z,7.45
2019-03-09T05:38:08.904Z,7.44
2019-03-09T05:40:37.362Z,7.48
2019-03-09T05:43:05.961Z,7.54
2019-03-09T05:45:34.190Z,7.56
2019-03-09T05:48:02.638Z,7.62
2019-03-09T05:50:31.245Z,7.64
2019-03-09T05:53:05.612Z,7.67
2019-03-09T05:55:33.849Z,7.69
2019-03-09T05:58:02.078Z,7.71
2019-03-09T06:00:30.311Z,7.69
2019-03-09T06:02:58.556Z,7.70
2019-03-09T06:05:29.628Z,7.69
2019-03-09T06:07:57.846Z,7.67
2019-03-09T06:10:26.079Z,7.70
2019-03-09T06:12:54.307Z,7.70
2019-03-09T06:15:22.771Z,7.70
2019-03-09T06:17:50.998Z,7.68
2019-03-09T06:20:19.230Z,7.68
2019-03-09T06:22:47.454Z,7.70
2019-03-09T06:25:15.930Z,7.71
2019-03-09T06:27:44.154Z,7.72
2019-03-09T06:30:13.560Z,7.77
2019-03-09T06:32:45.186Z,7.82
2019-03-09T06:35:16.838Z,7.79
2019-03-09T06:37:51.137Z,7.82
2019-03-09T06:40:19.368Z,7.87
2019-03-09T06:42:48.739Z,7.90
2019-03-09T06:45:16.965Z,7.90
2019-03-09T06:47:45.209Z,7.95
2019-03-09T06:50:15.532Z,7.99
2019-03-09T06:52:44.002Z,7.98
2019-03-09T06:55:13.767Z,7.97
2019-03-09T06:57:41.999Z,7.92
2019-03-09T07:00:30.545Z,7.94
2019-03-09T07:02:59.144Z,7.96
2019-03-09T07:05:27.593Z,7.99
2019-03-09T07:07:55.827Z,7.99
2019-03-09T07:10:24.047Z,8.01
2019-03-09T07:12:52.506Z,7.99
2019-03-09T07:15:23.431Z,7.97
2019-03-09T07:17:53.310Z,7.97
2019-03-09T07:20:21.763Z,7.95
2019-03-09T07:22:50.223Z,7.94
2019-03-09T07:25:18.456Z,7.95
2019-03-09T07:27:55.718Z,7.93
2019-03-09T07:30:24.169Z,7.96
2019-03-09T07:32:52.631Z,7.99
2019-03-09T07:35:21.176Z,8.03
2019-03-09T07:37:49.413Z,8.07
2019-03-09T07:40:17.938Z,8.17
2019-03-09T07:42:46.168Z,8.24
2019-03-09T07:45:15.098Z,8.31
2019-03-09T07:47:43.338Z,8.42
2019-03-09T07:50:16.798Z,8.51
2019-03-09T07:52:45.356Z,8.53
2019-03-09T07:55:15.238Z,8.63
2019-03-09T07:57:43.481Z,8.71
2019-03-09T08:00:14.513Z,8.75
2019-03-09T08:02:43.073Z,8.81
2019-03-09T08:05:11.543Z,8.89
2019-03-09T08:07:39.789Z,8.92
2019-03-09T08:10:10.862Z,8.98
2019-03-09T08:12:39.360Z,9.06
2019-03-09T08:15:10.429Z,9.16
2019-03-09T08:17:38.984Z,9.28
2019-03-09T08:20:10.061Z,9.38
2019-03-09T08:22:38.608Z,9.57
2019-03-09T08:25:09.755Z,9.73
2019-03-09T08:27:38.069Z,9.93
2019-03-09T08:30:12.302Z,10.12
2019-03-09T08:32:40.539Z,10.30
2019-03-09T08:35:09.513Z,10.47
2019-03-09T08:37:37.775Z,10.61
2019-03-09T08:40:11.727Z,10.75
2019-03-09T08:42:39.964Z,10.83
2019-03-09T08:45:15.864Z,10.95
2019-03-09T08:47:51.587Z,10.98
2019-03-09T08:50:17.428Z,11.04
2019-03-09T08:52:45.704Z,11.06
2019-03-09T08:55:15.255Z,11.14
2019-03-09T08:57:43.727Z,11.20
2019-03-09T09:00:21.023Z,11.22
2019-03-09T09:02:49.218Z,11.28
2019-03-09T09:05:17.532Z,11.29
2019-03-09T09:07:45.816Z,11.36
2019-03-09T09:10:14.091Z,11.33
2019-03-09T09:12:42.321Z,11.37
2019-03-09T09:15:17.826Z,11.32
2019-03-09T09:17:46.055Z,11.36
2019-03-09T09:20:24.695Z,11.35
2019-03-09T09:22:53.381Z,11.35
2019-03-09T09:25:21.694Z,11.35
2019-03-09T09:27:51.848Z,11.34
2019-03-09T09:30:22.525Z,11.28
2019-03-09T09:32:50.979Z,11.26
2019-03-09T09:35:19.722Z,11.21
2019-03-09T09:37:48.255Z,11.21
2019-03-09T09:40:26.540Z,11.24
2019-03-09T09:42:54.847Z,11.33
2019-03-09T09:45:23.252Z,11.39
2019-03-09T09:47:51.819Z,11.44
2019-03-09T09:50:20.063Z,11.49
2019-03-09T09:52:48.293Z,11.56
2019-03-09T09:55:18.329Z,11.62
2019-03-09T09:57:46.571Z,11.68
2019-03-09T10:00:20.733Z,11.77
2019-03-09T10:02:48.990Z,11.78
2019-03-09T10:05:17.302Z,11.80
2019-03-09T10:07:45.541Z,11.88
2019-03-09T10:10:18.807Z,11.94
2019-03-09T10:12:47.045Z,12.00
2019-03-09T10:15:20.333Z,12.09
2019-03-09T10:17:48.794Z,12.11
2019-03-09T10:20:17.271Z,12.18
2019-03-09T10:22:45.728Z,12.21
2019-03-09T10:25:14.570Z,12.27
2019-03-09T10:27:43.099Z,12.31
2019-03-09T10:30:23.183Z,12.36
2019-03-09T10:32:51.729Z,12.42
2019-03-09T10:35:20.271Z,12.42
2019-03-09T10:37:49.247Z,12.48
2019-03-09T10:40:17.715Z,12.48
2019-03-09T10:42:45.946Z,12.48
2019-03-09T10:45:16.330Z,12.43
2019-03-09T10:47:44.562Z,12.46
2019-03-09T10:50:15.738Z,12.46
2019-03-09T10:52:44.209Z,12.44
2019-03-09T10:55:14.688Z,12.45
2019-03-09T10:57:42.909Z,12.42
2019-03-09T11:00:23.118Z,12.43
2019-03-09T11:02:51.346Z,12.51
2019-03-09T11:05:19.629Z,12.52
2019-03-09T11:07:48.160Z,12.52
2019-03-09T11:10:16.396Z,12.51
2019-03-09T11:12:44.867Z,12.54
2019-03-09T11:15:13.519Z,12.51
2019-03-09T11:17:41.974Z,12.67
2019-03-09T11:20:13.441Z,12.70
2019-03-09T11:22:41.676Z,12.77
2019-03-09T11:25:10.740Z,12.84
2019-03-09T11:27:38.985Z,12.91
2019-03-09T11:30:25.668Z,12.98
2019-03-09T11:32:54.126Z,12.95
2019-03-09T11:35:22.448Z,13.04
2019-03-09T11:37:50.896Z,13.13
2019-03-09T11:40:19.189Z,13.08
2019-03-09T11:42:47.433Z,13.03
2019-03-09T11:45:19.518Z,13.02
2019-03-09T11:47:47.774Z,12.95
2019-03-09T11:50:16.982Z,12.95
2019-03-09T11:52:45.816Z,12.97
2019-03-09T11:55:17.651Z,12.88
2019-03-09T11:57:45.932Z,12.91
2019-03-09T12:00:25.626Z,12.86
2019-03-09T12:02:53.867Z,12.81
2019-03-09T12:05:22.140Z,12.81
2019-03-09T12:07:50.568Z,12.75
2019-03-09T12:10:19.096Z,12.80
2019-03-09T12:12:47.339Z,12.78
2019-03-09T12:15:16.613Z,12.78
2019-03-09T12:17:44.853Z,12.75
2019-03-09T12:20:15.507Z,12.81
2019-03-09T12:22:43.763Z,12.79
2019-03-09T12:25:15.171Z,12.72
2019-03-09T12:27:43.412Z,12.71
2019-03-09T12:30:17.562Z,12.57
2019-03-09T12:32:46.035Z,12.57
2019-03-09T12:35:14.505Z,12.53
2019-03-09T12:37:42.979Z,12.48
2019-03-09T12:40:18.531Z,12.30
2019-03-09T12:42:47.171Z,12.51
2019-03-09T12:45:16.255Z,12.47
2019-03-09T12:47:44.502Z,12.43
2019-03-09T12:50:18.350Z,12.49
2019-03-09T12:52:46.820Z,12.50
2019-03-09T12:55:15.048Z,12.52
2019-03-09T12:57:43.293Z,12.56
2019-03-09T13:00:20.480Z,12.66
2019-03-09T13:02:48.729Z,12.81
2019-03-09T13:05:17.995Z,12.89
2019-03-09T13:07:46.537Z,12.96
2019-03-09T13:10:15.601Z,13.01
2019-03-09T13:12:43.847Z,12.98
2019-03-09T13:15:12.780Z,13.05
2019-03-09T13:17:43.566Z,13.00
2019-03-09T13:20:13.282Z,12.96
2019-03-09T13:22:41.505Z,13.04
2019-03-09T13:25:09.815Z,13.07
2019-03-09T13:27:38.064Z,13.05
2019-03-09T13:30:12.182Z,13.05
2019-03-09T13:32:40.664Z,13.12
2019-03-09T13:37:41.574Z,13.18
2019-03-09T13:40:11.444Z,13.16
2019-03-09T13:42:39.685Z,13.14
2019-03-09T13:45:11.183Z,13.06
2019-03-09T13:47:39.415Z,12.95
2019-03-09T13:50:10.098Z,12.90
2019-03-09T13:52:38.333Z,12.76
2019-03-09T13:55:10.535Z,12.72
2019-03-09T13:57:38.769Z,12.62
2019-03-09T14:00:18.113Z,12.61
2019-03-09T14:02:46.339Z,12.60
2019-03-09T14:05:15.020Z,12.67
2019-03-09T14:07:43.248Z,12.70
2019-03-09T14:10:14.956Z,12.78
2019-03-09T14:12:43.489Z,12.83
2019-03-09T14:15:13.939Z,12.78
2019-03-09T14:17:42.173Z,12.78
2019-03-09T14:20:12.251Z,12.71
2019-03-09T14:22:40.479Z,12.74
2019-03-09T14:25:11.186Z,12.75
2019-03-09T14:27:39.654Z,12.76
2019-03-09T14:30:18.183Z,12.74
2019-03-09T14:32:46.425Z,12.66
2019-03-09T14:35:14.852Z,12.66
2019-03-09T14:37:43.512Z,12.60
2019-03-09T14:40:15.876Z,12.55
2019-03-09T14:42:44.101Z,12.53
2019-03-09T14:45:20.675Z,12.47
2019-03-09T14:47:48.927Z,12.36
2019-03-09T14:50:17.239Z,12.28
2019-03-09T14:52:45.726Z,12.21
2019-03-09T14:55:14.409Z,12.25
2019-03-09T14:57:43.052Z,12.22
2019-03-09T15:00:19.809Z,12.20
2019-03-09T15:02:48.046Z,12.14
2019-03-09T15:05:16.285Z,12.14
2019-03-09T15:07:44.515Z,12.16
2019-03-09T15:10:13.197Z,12.04
2019-03-09T15:12:41.714Z,12.04
2019-03-09T15:15:15.217Z,12.01
2019-03-09T15:17:43.448Z,12.00
2019-03-09T15:20:13.231Z,11.97
2019-03-09T15:22:41.468Z,11.91
2019-03-09T15:25:13.100Z,11.83
2019-03-09T15:27:41.329Z,11.74
2019-03-09T15:30:14.647Z,11.68
2019-03-09T15:32:42.881Z,11.67
2019-03-09T15:35:11.591Z,11.70
2019-03-09T15:37:40.156Z,11.78
2019-03-09T15:40:13.929Z,11.85
2019-03-09T15:42:42.446Z,11.84
2019-03-09T15:45:15.882Z,11.80
2019-03-09T15:47:44.189Z,11.78
2019-03-09T15:50:15.594Z,11.80
2019-03-09T15:52:43.873Z,11.77
2019-03-09T15:55:12.475Z,11.76
2019-03-09T15:57:40.837Z,11.85
2019-03-09T16:00:23.082Z,11.90
2019-03-09T16:02:51.491Z,11.95
2019-03-09T16:05:20.044Z,11.98
2019-03-09T16:07:48.569Z,12.06
2019-03-09T16:10:18.907Z,12.12
2019-03-09T16:12:47.479Z,12.21
2019-03-09T16:15:18.424Z,12.29
2019-03-09T16:17:46.940Z,12.35
2019-03-09T16:20:20.064Z,12.43
2019-03-09T16:22:48.567Z,12.48
2019-03-09T16:25:17.067Z,12.55
2019-03-09T16:27:45.643Z,12.59
2019-03-09T16:30:23.584Z,12.63
2019-03-09T16:32:51.947Z,12.67
2019-03-09T16:35:20.178Z,12.67
2019-03-09T16:37:49.755Z,12.64
2019-03-09T16:40:22.192Z,12.61
2019-03-09T16:42:50.436Z,12.59
2019-03-09T16:45:18.660Z,12.55
2019-03-09T16:47:46.903Z,12.53
2019-03-09T16:50:19.357Z,12.53
2019-03-09T16:52:47.602Z,12.51
2019-03-09T16:55:15.827Z,12.43
2019-03-09T16:57:44.336Z,12.42
2019-03-09T17:00:23.162Z,12.37
2019-03-09T17:02:51.632Z,12.37
2019-03-09T17:05:20.104Z,12.32
2019-03-09T17:07:48.356Z,12.32
2019-03-09T17:10:19.014Z,12.29
2019-03-09T17:12:47.442Z,12.25
2019-03-09T17:15:22.513Z,12.24
2019-03-09T17:17:50.982Z,12.23
2019-03-09T17:20:19.708Z,12.20
2019-03-09T17:22:47.948Z,12.19
2019-03-09T17:25:16.581Z,12.18
2019-03-09T17:27:45.114Z,12.15
2019-03-09T17:30:17.571Z,12.12
2019-03-09T17:32:45.811Z,12.16
2019-03-09T17:35:14.205Z,12.17
2019-03-09T17:37:42.837Z,12.15
2019-03-09T17:40:15.767Z,12.13
2019-03-09T17:42:44.227Z,12.30
2019-03-09T17:45:18.172Z,12.33
2019-03-09T17:47:46.639Z,12.41
2019-03-09T17:50:15.101Z,12.39
2019-03-09T17:52:43.573Z,12.39
2019-03-09T17:55:12.139Z,12.31
2019-03-09T17:57:40.382Z,12.26
2019-03-09T18:00:16.425Z,12.26
2019-03-09T18:02:44.664Z,12.27
2019-03-09T18:05:12.896Z,12.28
2019-03-09T18:07:41.128Z,12.28
2019-03-09T18:10:18.623Z,12.32
2019-03-09T18:12:47.089Z,12.39
2019-03-09T18:15:15.384Z,12.43
2019-03-09T18:17:43.617Z,12.35
2019-03-09T18:20:11.865Z,11.94
2019-03-09T18:22:40.095Z,10.93
2019-03-09T18:25:08.407Z,10.22
2019-03-09T18:27:36.640Z,9.72
2019-03-09T18:30:07.415Z,9.36
2019-03-09T18:32:35.872Z,9.08
2019-03-09T18:35:05.847Z,8.90
2019-03-09T18:37:34.309Z,8.61
2019-03-09T18:40:02.767Z,8.62
2019-03-09T18:42:31.228Z,8.55
2019-03-09T18:44:59.463Z,8.43
2019-03-09T18:47:27.696Z,8.25
2019-03-09T18:49:56.160Z,8.11
2019-03-09T18:52:24.391Z,9.89
2019-03-09T18:54:52.629Z,8.13
2019-03-09T18:57:20.860Z,7.96
2019-03-09T18:59:49.096Z,7.92
2019-03-09T19:02:17.551Z,7.90
2019-03-09T19:04:46.017Z,7.75
2019-03-09T19:07:14.471Z,7.89
2019-03-09T19:09:42.707Z,7.88
2019-03-09T19:12:11.160Z,7.89
2019-03-09T19:14:41.332Z,7.90
2019-03-09T19:17:09.346Z,7.95
2019-03-09T19:19:37.590Z,7.92
2019-03-09T19:22:06.038Z,7.83
2019-03-09T19:24:34.269Z,7.74
2019-03-09T19:27:02.494Z,7.63
2019-03-09T19:29:30.731Z,7.59
2019-03-09T19:31:58.958Z,7.59
2019-03-09T19:34:27.197Z,7.58
2019-03-09T19:36:55.651Z,7.58
2019-03-09T19:39:23.875Z,7.64
2019-03-09T19:41:52.111Z,7.65
2019-03-09T19:44:20.347Z,7.67
2019-03-09T19:46:48.584Z,7.71
2019-03-09T19:49:16.842Z,7.69
2019-03-09T19:51:45.082Z,7.50
2019-03-09T19:54:13.309Z,7.49
2019-03-09T19:56:41.547Z,7.48
2019-03-09T19:59:09.847Z,7.49
2019-03-09T20:01:38.083Z,7.49
2019-03-09T20:04:06.594Z,7.50
2019-03-09T20:06:35.054Z,7.70
2019-03-09T20:09:03.581Z,7.74
2019-03-09T20:11:31.860Z,7.73
2019-03-09T20:14:00.419Z,7.75
2019-03-09T20:16:28.649Z,7.79
2019-03-09T20:18:57.180Z,7.82
2019-03-09T20:21:25.663Z,7.81
2019-03-09T20:23:53.958Z,7.84
2019-03-09T20:26:22.154Z,7.84
2019-03-09T20:28:50.415Z,7.88
2019-03-09T20:31:18.651Z,7.84
2019-03-09T20:33:47.156Z,7.89
2019-03-09T20:36:15.391Z,7.91
2019-03-09T20:38:43.620Z,7.94
2019-03-09T20:41:11.899Z,7.92
2019-03-09T20:43:40.121Z,7.90
2019-03-09T20:46:08.410Z,7.91
2019-03-09T20:48:36.641Z,7.94
2019-03-09T20:51:04.909Z,7.97
2019-03-09T20:53:33.139Z,8.00
2019-03-09T20:56:01.642Z,8.03
2019-03-09T20:58:29.886Z,8.06
2019-03-09T21:00:58.095Z,8.11
2019-03-09T21:03:26.329Z,8.15
2019-03-09T21:05:54.773Z,8.19
2019-03-09T21:08:23.082Z,8.20
2019-03-09T21:10:51.308Z,8.25
2019-03-09T21:13:19.549Z,8.26
2019-03-09T21:15:47.768Z,8.31
2019-03-09T21:18:16.010Z,8.33
2019-03-09T21:20:44.331Z,8.36
2019-03-09T21:23:12.790Z,8.38
2019-03-09T21:25:41.279Z,8.40
2019-03-09T21:28:09.524Z,8.41
2019-03-09T21:30:37.746Z,8.39
2019-03-09T21:33:05.983Z,8.40
2019-03-09T21:35:34.438Z,8.40
2019-03-09T21:38:02.670Z,8.39
2019-03-09T21:40:31.128Z,8.35
2019-03-09T21:42:59.376Z,8.32
2019-03-09T21:45:27.599Z,8.34
2019-03-09T21:47:55.829Z,8.35
2019-03-09T21:50:24.303Z,8.38
2019-03-09T21:52:52.514Z,8.37
2019-03-09T21:55:20.967Z,8.43
2019-03-09T21:57:49.200Z,8.43
2019-03-09T22:00:18.562Z,8.43
2019-03-09T22:02:47.030Z,8.48
2019-03-09T22:05:15.556Z,8.46
2019-03-09T22:07:44.016Z,8.48
2019-03-09T22:10:13.078Z,8.52
2019-03-09T22:12:41.311Z,8.53
2019-03-09T22:15:18.616Z,8.56
2019-03-09T22:17:46.828Z,8.58
2019-03-09T22:20:15.643Z,8.60
2019-03-09T22:22:43.888Z,8.64
2019-03-09T22:25:13.651Z,8.64
2019-03-09T22:27:42.289Z,8.66
2019-03-09T22:30:18.917Z,8.71
2019-03-09T22:32:47.156Z,8.71
2019-03-09T22:35:15.552Z,8.73
2019-03-09T22:37:44.022Z,8.70
2019-03-09T22:40:15.279Z,8.70
2019-03-09T22:42:43.804Z,8.68
2019-03-09T22:45:13.062Z,8.69
2019-03-09T22:47:41.297Z,8.67
2019-03-09T22:50:24.185Z,8.64
2019-03-09T22:52:52.419Z,8.64
2019-03-09T22:55:20.986Z,8.62
2019-03-09T22:57:49.218Z,8.61
2019-03-09T23:00:22.820Z,8.57
2019-03-09T23:02:51.039Z,8.59
2019-03-09T23:05:19.502Z,8.59
2019-03-09T23:07:47.731Z,8.57
2019-03-09T23:10:17.602Z,8.57
2019-03-09T23:12:46.149Z,8.58
2019-03-09T23:15:16.120Z,8.59
2019-03-09T23:17:44.478Z,8.62
2019-03-09T23:20:15.016Z,8.64
2019-03-09T23:22:43.245Z,8.65
2019-03-09T23:25:12.518Z,8.63
2019-03-09T23:27:40.846Z,8.62
2019-03-09T23:30:20.126Z,8.63
2019-03-09T23:32:48.335Z,8.59
2019-03-09T23:35:16.913Z,8.52
2019-03-09T23:37:47.437Z,8.51
2019-03-09T23:40:16.911Z,8.50
2019-03-09T23:42:45.140Z,8.44
2019-03-09T23:45:15.630Z,8.38
2019-03-09T23:47:43.856Z,8.34
2019-03-09T23:50:16.701Z,8.40
2019-03-09T23:52:45.396Z,8.37
2019-03-09T23:55:22.025Z,8.39
2019-03-09T23:57:43.818Z,8.39
